Genova / Sestri Cristoforo Colombo Airport LIMJ

Flugplatz Daten

Name: Genova / Sestri Cristoforo Colombo Airport

Ident: LIMJ

Lat: 44,41329956

Long: 8,837499619

Platzhöhe: 13 ft

IataCode: GOA

City: Genova

Homepage: http://www.aeroportodigenova.com/en/home/index.php

Metar

2021/12/03 23:20
LIMJ 032320Z 05011KT CAVOK 09/M02 Q1014

Taf

2021/12/03 18:00
TAF LIMJ 031700Z 0318/0418 03008KT CAVOK
Gewünschte Webcam nicht vorhanden? Dann fügen Sie eine hinzu. Sie wird dann so schnell wie möglich freigeschaltet
Url: Title: